sensor_id;sensor_type;location;lat;lon;timestamp;temperature;humidity
21259;DHT22;10787;53.364;-1.480;2023-07-31T00:00:07;15.50;1.00
21259;DHT22;10787;53.364;-1.480;2023-07-31T00:02:55;15.50;1.00
21259;DHT22;10787;53.364;-1.480;2023-07-31T00:05:39;15.60;1.00
21259;DHT22;10787;53.364;-1.480;2023-07-31T00:08:23;15.60;1.00
21259;DHT22;10787;53.364;-1.480;2023-07-31T00:11:07;15.60;1.00
21259;DHT22;10787;53.364;-1.480;2023-07-31T00:13:53;15.70;1.00
21259;DHT22;10787;53.364;-1.480;2023-07-31T00:16:37;15.70;1.00
21259;DHT22;10787;53.364;-1.480;2023-07-31T00:19:21;15.70;1.00
21259;DHT22;10787;53.364;-1.480;2023-07-31T00:22:06;15.70;1.00
21259;DHT22;10787;53.364;-1.480;2023-07-31T00:24:50;15.80;1.00
21259;DHT22;10787;53.364;-1.480;2023-07-31T00:27:35;15.80;1.00
21259;DHT22;10787;53.364;-1.480;2023-07-31T00:30:19;15.80;1.00
21259;DHT22;10787;53.364;-1.480;2023-07-31T00:33:03;15.80;1.00
21259;DHT22;10787;53.364;-1.480;2023-07-31T00:35:48;15.90;1.00
21259;DHT22;10787;53.364;-1.480;2023-07-31T00:38:33;15.80;1.00
21259;DHT22;10787;53.364;-1.480;2023-07-31T00:41:17;15.90;1.00
21259;DHT22;10787;53.364;-1.480;2023-07-31T00:44:01;15.90;1.00
21259;DHT22;10787;53.364;-1.480;2023-07-31T00:46:45;15.90;1.00
21259;DHT22;10787;53.364;-1.480;2023-07-31T00:49:29;15.90;1.00
21259;DHT22;10787;53.364;-1.480;2023-07-31T00:52:13;16.00;1.00
21259;DHT22;10787;53.364;-1.480;2023-07-31T00:54:57;16.00;1.00
21259;DHT22;10787;53.364;-1.480;2023-07-31T00:57:42;16.00;1.00
21259;DHT22;10787;53.364;-1.480;2023-07-31T01:00:26;16.00;1.00
21259;DHT22;10787;53.364;-1.480;2023-07-31T01:03:11;16.00;1.00
21259;DHT22;10787;53.364;-1.480;2023-07-31T01:09:32;16.00;1.00
21259;DHT22;10787;53.364;-1.480;2023-07-31T01:12:20;16.00;1.00
21259;DHT22;10787;53.364;-1.480;2023-07-31T01:15:08;16.00;1.00
21259;DHT22;10787;53.364;-1.480;2023-07-31T01:17:56;16.00;1.00
21259;DHT22;10787;53.364;-1.480;2023-07-31T01:20:41;16.00;1.00
21259;DHT22;10787;53.364;-1.480;2023-07-31T01:26:36;16.00;1.00
21259;DHT22;10787;53.364;-1.480;2023-07-31T01:29:32;16.00;1.00
21259;DHT22;10787;53.364;-1.480;2023-07-31T01:32:19;16.00;1.00
21259;DHT22;10787;53.364;-1.480;2023-07-31T01:35:06;16.00;1.00
21259;DHT22;10787;53.364;-1.480;2023-07-31T01:37:52;16.00;1.00
21259;DHT22;10787;53.364;-1.480;2023-07-31T01:40:41;16.00;1.00
21259;DHT22;10787;53.364;-1.480;2023-07-31T01:43:26;16.00;1.00
21259;DHT22;10787;53.364;-1.480;2023-07-31T01:46:11;16.00;1.00
21259;DHT22;10787;53.364;-1.480;2023-07-31T01:48:55;16.00;1.00
21259;DHT22;10787;53.364;-1.480;2023-07-31T01:51:39;16.00;1.00
21259;DHT22;10787;53.364;-1.480;2023-07-31T01:54:23;16.00;1.00
21259;DHT22;10787;53.364;-1.480;2023-07-31T01:57:08;16.00;1.00
21259;DHT22;10787;53.364;-1.480;2023-07-31T01:59:52;16.00;1.00
21259;DHT22;10787;53.364;-1.480;2023-07-31T02:02:37;16.00;1.00
21259;DHT22;10787;53.364;-1.480;2023-07-31T02:05:22;16.00;1.00
21259;DHT22;10787;53.364;-1.480;2023-07-31T02:08:06;16.00;1.00
21259;DHT22;10787;53.364;-1.480;2023-07-31T02:10:51;16.00;1.00
21259;DHT22;10787;53.364;-1.480;2023-07-31T02:13:36;16.00;1.00
21259;DHT22;10787;53.364;-1.480;2023-07-31T02:16:20;16.10;1.00
21259;DHT22;10787;53.364;-1.480;2023-07-31T02:19:04;16.10;1.00
21259;DHT22;10787;53.364;-1.480;2023-07-31T02:21:48;16.10;1.00
21259;DHT22;10787;53.364;-1.480;2023-07-31T02:24:32;16.10;1.00
21259;DHT22;10787;53.364;-1.480;2023-07-31T02:27:17;16.10;1.00
21259;DHT22;10787;53.364;-1.480;2023-07-31T02:30:01;16.20;1.00
21259;DHT22;10787;53.364;-1.480;2023-07-31T02:32:45;16.20;1.00
21259;DHT22;10787;53.364;-1.480;2023-07-31T02:35:29;16.20;1.00
21259;DHT22;10787;53.364;-1.480;2023-07-31T02:38:13;16.10;1.00
21259;DHT22;10787;53.364;-1.480;2023-07-31T02:40:57;16.10;1.00
21259;DHT22;10787;53.364;-1.480;2023-07-31T02:43:41;16.20;1.00
21259;DHT22;10787;53.364;-1.480;2023-07-31T02:46:26;16.20;1.00
21259;DHT22;10787;53.364;-1.480;2023-07-31T02:49:10;16.10;1.00
21259;DHT22;10787;53.364;-1.480;2023-07-31T02:51:54;16.20;1.00
21259;DHT22;10787;53.364;-1.480;2023-07-31T02:54:39;16.20;1.00
21259;DHT22;10787;53.364;-1.480;2023-07-31T02:57:23;16.20;1.00
21259;DHT22;10787;53.364;-1.480;2023-07-31T03:00:07;16.20;1.00
21259;DHT22;10787;53.364;-1.480;2023-07-31T03:02:51;16.20;1.00
21259;DHT22;10787;53.364;-1.480;2023-07-31T03:05:36;16.30;1.00
21259;DHT22;10787;53.364;-1.480;2023-07-31T03:08:20;16.30;1.00
21259;DHT22;10787;53.364;-1.480;2023-07-31T03:11:05;16.30;1.00
21259;DHT22;10787;53.364;-1.480;2023-07-31T03:13:49;16.30;1.00
21259;DHT22;10787;53.364;-1.480;2023-07-31T03:16:33;16.30;1.00
21259;DHT22;10787;53.364;-1.480;2023-07-31T03:19:17;16.30;1.00
21259;DHT22;10787;53.364;-1.480;2023-07-31T03:22:02;16.30;1.00
21259;DHT22;10787;53.364;-1.480;2023-07-31T03:24:46;16.30;1.00
21259;DHT22;10787;53.364;-1.480;2023-07-31T03:27:30;16.30;1.00
21259;DHT22;10787;53.364;-1.480;2023-07-31T03:30:14;16.40;1.00
21259;DHT22;10787;53.364;-1.480;2023-07-31T03:32:59;16.40;1.00
21259;DHT22;10787;53.364;-1.480;2023-07-31T03:35:43;16.40;1.00
21259;DHT22;10787;53.364;-1.480;2023-07-31T03:38:27;16.40;1.00
21259;DHT22;10787;53.364;-1.480;2023-07-31T03:41:12;16.40;1.00
21259;DHT22;10787;53.364;-1.480;2023-07-31T03:43:57;16.40;1.00
21259;DHT22;10787;53.364;-1.480;2023-07-31T03:46:41;16.40;1.00
21259;DHT22;10787;53.364;-1.480;2023-07-31T03:49:25;16.40;1.00
21259;DHT22;10787;53.364;-1.480;2023-07-31T03:52:10;16.40;1.00
21259;DHT22;10787;53.364;-1.480;2023-07-31T03:54:54;16.40;1.00
21259;DHT22;10787;53.364;-1.480;2023-07-31T03:57:38;16.50;1.00
21259;DHT22;10787;53.364;-1.480;2023-07-31T04:00:22;16.50;1.00
21259;DHT22;10787;53.364;-1.480;2023-07-31T04:03:07;16.50;1.00
21259;DHT22;10787;53.364;-1.480;2023-07-31T04:05:51;16.50;1.00
21259;DHT22;10787;53.364;-1.480;2023-07-31T04:08:35;16.40;1.00
21259;DHT22;10787;53.364;-1.480;2023-07-31T04:11:19;16.50;1.00
21259;DHT22;10787;53.364;-1.480;2023-07-31T04:14:03;16.50;1.00
21259;DHT22;10787;53.364;-1.480;2023-07-31T04:16:47;16.50;1.00
21259;DHT22;10787;53.364;-1.480;2023-07-31T04:19:32;16.50;1.00
21259;DHT22;10787;53.364;-1.480;2023-07-31T04:22:16;16.40;1.00
21259;DHT22;10787;53.364;-1.480;2023-07-31T04:25:00;16.40;1.00
21259;DHT22;10787;53.364;-1.480;2023-07-31T04:27:45;16.40;1.00
21259;DHT22;10787;53.364;-1.480;2023-07-31T04:30:29;16.40;1.00
21259;DHT22;10787;53.364;-1.480;2023-07-31T04:33:13;16.40;1.00
21259;DHT22;10787;53.364;-1.480;2023-07-31T04:35:58;16.50;1.00
21259;DHT22;10787;53.364;-1.480;2023-07-31T04:38:43;16.50;1.00
21259;DHT22;10787;53.364;-1.480;2023-07-31T04:41:27;16.50;1.00
21259;DHT22;10787;53.364;-1.480;2023-07-31T04:44:12;16.50;1.00
21259;DHT22;10787;53.364;-1.480;2023-07-31T04:46:56;16.60;1.00
21259;DHT22;10787;53.364;-1.480;2023-07-31T04:49:40;16.60;1.00
21259;DHT22;10787;53.364;-1.480;2023-07-31T04:52:25;16.60;1.00
21259;DHT22;10787;53.364;-1.480;2023-07-31T04:55:10;16.70;1.00
21259;DHT22;10787;53.364;-1.480;2023-07-31T04:57:54;16.70;1.00
21259;DHT22;10787;53.364;-1.480;2023-07-31T05:00:38;16.70;1.00
21259;DHT22;10787;53.364;-1.480;2023-07-31T05:03:22;16.80;1.00
21259;DHT22;10787;53.364;-1.480;2023-07-31T05:06:10;16.80;1.00
21259;DHT22;10787;53.364;-1.480;2023-07-31T05:08:53;16.80;1.00
21259;DHT22;10787;53.364;-1.480;2023-07-31T05:11:38;16.80;1.00
21259;DHT22;10787;53.364;-1.480;2023-07-31T05:14:26;16.80;1.00
21259;DHT22;10787;53.364;-1.480;2023-07-31T05:17:10;16.80;1.00
21259;DHT22;10787;53.364;-1.480;2023-07-31T05:19:57;16.80;1.00
21259;DHT22;10787;53.364;-1.480;2023-07-31T05:22:41;16.80;1.00
21259;DHT22;10787;53.364;-1.480;2023-07-31T05:25:25;16.90;1.00
21259;DHT22;10787;53.364;-1.480;2023-07-31T05:28:11;16.80;1.00
21259;DHT22;10787;53.364;-1.480;2023-07-31T05:31:03;16.80;1.00
21259;DHT22;10787;53.364;-1.480;2023-07-31T05:33:47;16.80;1.00
21259;DHT22;10787;53.364;-1.480;2023-07-31T05:36:33;16.70;1.00
21259;DHT22;10787;53.364;-1.480;2023-07-31T05:39:18;16.70;1.00
21259;DHT22;10787;53.364;-1.480;2023-07-31T05:42:03;16.70;1.00
21259;DHT22;10787;53.364;-1.480;2023-07-31T05:44:47;16.70;1.00
21259;DHT22;10787;53.364;-1.480;2023-07-31T05:47:32;16.70;1.00
21259;DHT22;10787;53.364;-1.480;2023-07-31T05:50:17;16.70;1.00
21259;DHT22;10787;53.364;-1.480;2023-07-31T05:53:01;16.70;1.00
21259;DHT22;10787;53.364;-1.480;2023-07-31T05:55:45;16.60;1.00
21259;DHT22;10787;53.364;-1.480;2023-07-31T05:58:30;16.60;1.00
21259;DHT22;10787;53.364;-1.480;2023-07-31T06:01:15;16.70;1.00
21259;DHT22;10787;53.364;-1.480;2023-07-31T06:04:00;16.70;1.00
21259;DHT22;10787;53.364;-1.480;2023-07-31T06:06:50;16.80;1.00
21259;DHT22;10787;53.364;-1.480;2023-07-31T06:09:36;16.80;1.00
21259;DHT22;10787;53.364;-1.480;2023-07-31T06:12:21;16.90;1.00
21259;DHT22;10787;53.364;-1.480;2023-07-31T06:15:05;17.00;99.90
21259;DHT22;10787;53.364;-1.480;2023-07-31T06:17:50;17.10;99.90
21259;DHT22;10787;53.364;-1.480;2023-07-31T06:20:34;17.20;1.00
21259;DHT22;10787;53.364;-1.480;2023-07-31T06:23:19;17.30;1.00
21259;DHT22;10787;53.364;-1.480;2023-07-31T06:26:04;17.40;1.00
21259;DHT22;10787;53.364;-1.480;2023-07-31T06:28:48;17.40;1.00
21259;DHT22;10787;53.364;-1.480;2023-07-31T06:31:32;17.50;99.90
21259;DHT22;10787;53.364;-1.480;2023-07-31T06:34:16;17.60;1.00
21259;DHT22;10787;53.364;-1.480;2023-07-31T06:37:00;17.60;99.90
21259;DHT22;10787;53.364;-1.480;2023-07-31T06:39:45;17.50;99.90
21259;DHT22;10787;53.364;-1.480;2023-07-31T06:42:29;17.60;99.90
21259;DHT22;10787;53.364;-1.480;2023-07-31T06:45:14;17.60;99.90
21259;DHT22;10787;53.364;-1.480;2023-07-31T06:47:58;17.60;1.00
21259;DHT22;10787;53.364;-1.480;2023-07-31T06:50:45;17.70;99.90
21259;DHT22;10787;53.364;-1.480;2023-07-31T06:53:30;17.70;1.00
21259;DHT22;10787;53.364;-1.480;2023-07-31T06:56:14;17.70;1.00
21259;DHT22;10787;53.364;-1.480;2023-07-31T06:58:58;17.70;99.90
21259;DHT22;10787;53.364;-1.480;2023-07-31T07:01:42;17.70;99.90
21259;DHT22;10787;53.364;-1.480;2023-07-31T07:04:26;17.80;1.00
21259;DHT22;10787;53.364;-1.480;2023-07-31T07:07:11;17.80;99.90
21259;DHT22;10787;53.364;-1.480;2023-07-31T07:09:55;17.80;1.00
21259;DHT22;10787;53.364;-1.480;2023-07-31T07:12:40;17.80;1.00
21259;DHT22;10787;53.364;-1.480;2023-07-31T07:15:24;17.80;99.90
21259;DHT22;10787;53.364;-1.480;2023-07-31T07:18:09;17.80;1.00
21259;DHT22;10787;53.364;-1.480;2023-07-31T07:20:54;17.90;1.00
21259;DHT22;10787;53.364;-1.480;2023-07-31T07:23:41;17.90;1.00
21259;DHT22;10787;53.364;-1.480;2023-07-31T07:26:26;18.00;1.00
21259;DHT22;10787;53.364;-1.480;2023-07-31T07:29:10;17.90;99.90
21259;DHT22;10787;53.364;-1.480;2023-07-31T07:31:55;18.00;99.90
21259;DHT22;10787;53.364;-1.480;2023-07-31T07:34:39;18.10;99.90
21259;DHT22;10787;53.364;-1.480;2023-07-31T07:37:23;18.10;1.00
21259;DHT22;10787;53.364;-1.480;2023-07-31T07:40:08;18.10;1.00
21259;DHT22;10787;53.364;-1.480;2023-07-31T07:42:52;18.00;1.00
21259;DHT22;10787;53.364;-1.480;2023-07-31T07:45:36;18.00;1.00
21259;DHT22;10787;53.364;-1.480;2023-07-31T07:48:21;18.00;1.00
21259;DHT22;10787;53.364;-1.480;2023-07-31T07:51:06;18.00;1.00
21259;DHT22;10787;53.364;-1.480;2023-07-31T07:53:50;17.90;1.00
21259;DHT22;10787;53.364;-1.480;2023-07-31T07:56:34;18.00;1.00
21259;DHT22;10787;53.364;-1.480;2023-07-31T07:59:20;18.00;1.00
21259;DHT22;10787;53.364;-1.480;2023-07-31T08:02:04;17.90;1.00
21259;DHT22;10787;53.364;-1.480;2023-07-31T08:04:49;17.90;1.00
21259;DHT22;10787;53.364;-1.480;2023-07-31T08:07:33;17.90;99.90
21259;DHT22;10787;53.364;-1.480;2023-07-31T08:10:17;17.90;99.90
21259;DHT22;10787;53.364;-1.480;2023-07-31T08:13:01;18.00;99.90
21259;DHT22;10787;53.364;-1.480;2023-07-31T08:15:45;18.00;99.90
21259;DHT22;10787;53.364;-1.480;2023-07-31T08:18:31;18.10;99.90
21259;DHT22;10787;53.364;-1.480;2023-07-31T08:21:15;18.20;99.90
21259;DHT22;10787;53.364;-1.480;2023-07-31T08:24:00;18.20;92.80
21259;DHT22;10787;53.364;-1.480;2023-07-31T08:26:44;18.20;99.90
21259;DHT22;10787;53.364;-1.480;2023-07-31T08:29:28;18.10;99.90
21259;DHT22;10787;53.364;-1.480;2023-07-31T08:32:12;18.20;99.90
21259;DHT22;10787;53.364;-1.480;2023-07-31T08:34:56;18.20;99.90
21259;DHT22;10787;53.364;-1.480;2023-07-31T08:37:41;18.10;99.90
21259;DHT22;10787;53.364;-1.480;2023-07-31T08:40:25;18.10;99.90
21259;DHT22;10787;53.364;-1.480;2023-07-31T08:43:09;18.10;99.90
21259;DHT22;10787;53.364;-1.480;2023-07-31T08:45:54;18.00;99.90
21259;DHT22;10787;53.364;-1.480;2023-07-31T08:48:41;18.00;99.90
21259;DHT22;10787;53.364;-1.480;2023-07-31T08:51:26;18.00;99.90
21259;DHT22;10787;53.364;-1.480;2023-07-31T08:54:10;18.00;99.90
21259;DHT22;10787;53.364;-1.480;2023-07-31T08:56:55;18.00;99.90
21259;DHT22;10787;53.364;-1.480;2023-07-31T08:59:40;18.10;99.90
21259;DHT22;10787;53.364;-1.480;2023-07-31T09:02:46;18.00;99.90
21259;DHT22;10787;53.364;-1.480;2023-07-31T09:05:32;18.10;99.90
21259;DHT22;10787;53.364;-1.480;2023-07-31T09:08:21;18.10;99.90
21259;DHT22;10787;53.364;-1.480;2023-07-31T09:11:05;18.00;99.90
21259;DHT22;10787;53.364;-1.480;2023-07-31T09:13:51;17.90;99.90
21259;DHT22;10787;53.364;-1.480;2023-07-31T09:16:36;17.80;99.90
21259;DHT22;10787;53.364;-1.480;2023-07-31T09:19:35;17.80;99.90
21259;DHT22;10787;53.364;-1.480;2023-07-31T09:22:33;17.80;99.90
21259;DHT22;10787;53.364;-1.480;2023-07-31T09:25:20;17.80;99.90
21259;DHT22;10787;53.364;-1.480;2023-07-31T09:28:11;17.80;99.90
21259;DHT22;10787;53.364;-1.480;2023-07-31T09:30:56;17.90;99.90
21259;DHT22;10787;53.364;-1.480;2023-07-31T09:33:54;17.90;99.90
21259;DHT22;10787;53.364;-1.480;2023-07-31T09:36:48;17.90;99.90
21259;DHT22;10787;53.364;-1.480;2023-07-31T09:39:45;17.90;21.10
21259;DHT22;10787;53.364;-1.480;2023-07-31T09:42:30;18.00;95.30
21259;DHT22;10787;53.364;-1.480;2023-07-31T09:45:18;18.00;90.80
21259;DHT22;10787;53.364;-1.480;2023-07-31T09:48:03;18.00;8.20
21259;DHT22;10787;53.364;-1.480;2023-07-31T09:50:49;18.00;6.90
21259;DHT22;10787;53.364;-1.480;2023-07-31T09:53:33;18.00;1.00
21259;DHT22;10787;53.364;-1.480;2023-07-31T09:56:19;18.00;1.00
21259;DHT22;10787;53.364;-1.480;2023-07-31T09:59:05;18.00;76.40
21259;DHT22;10787;53.364;-1.480;2023-07-31T10:01:52;18.10;24.00
21259;DHT22;10787;53.364;-1.480;2023-07-31T10:04:42;18.10;58.90
21259;DHT22;10787;53.364;-1.480;2023-07-31T10:07:29;18.10;76.80
21259;DHT22;10787;53.364;-1.480;2023-07-31T10:10:15;18.00;99.90
21259;DHT22;10787;53.364;-1.480;2023-07-31T10:13:00;18.00;93.80
21259;DHT22;10787;53.364;-1.480;2023-07-31T10:15:46;17.90;99.90
21259;DHT22;10787;53.364;-1.480;2023-07-31T10:18:31;17.80;99.90
21259;DHT22;10787;53.364;-1.480;2023-07-31T10:21:15;17.80;99.90
21259;DHT22;10787;53.364;-1.480;2023-07-31T10:24:02;17.80;99.90
21259;DHT22;10787;53.364;-1.480;2023-07-31T10:26:48;17.70;99.90
21259;DHT22;10787;53.364;-1.480;2023-07-31T10:29:33;17.70;99.90
21259;DHT22;10787;53.364;-1.480;2023-07-31T10:32:19;17.60;99.90
21259;DHT22;10787;53.364;-1.480;2023-07-31T10:35:04;17.60;99.90
21259;DHT22;10787;53.364;-1.480;2023-07-31T10:37:49;17.60;99.90
21259;DHT22;10787;53.364;-1.480;2023-07-31T10:40:34;17.60;99.90
21259;DHT22;10787;53.364;-1.480;2023-07-31T10:43:25;17.60;99.90
21259;DHT22;10787;53.364;-1.480;2023-07-31T10:46:14;17.60;99.90
21259;DHT22;10787;53.364;-1.480;2023-07-31T10:49:01;17.60;99.90
21259;DHT22;10787;53.364;-1.480;2023-07-31T10:51:47;17.60;99.90
21259;DHT22;10787;53.364;-1.480;2023-07-31T10:54:33;17.50;99.90
21259;DHT22;10787;53.364;-1.480;2023-07-31T10:57:24;17.50;99.90
21259;DHT22;10787;53.364;-1.480;2023-07-31T11:00:27;17.50;99.90
21259;DHT22;10787;53.364;-1.480;2023-07-31T11:03:15;17.50;99.90
21259;DHT22;10787;53.364;-1.480;2023-07-31T11:06:02;17.40;99.90
21259;DHT22;10787;53.364;-1.480;2023-07-31T11:08:49;17.30;1.00
21259;DHT22;10787;53.364;-1.480;2023-07-31T11:11:34;17.30;1.00
21259;DHT22;10787;53.364;-1.480;2023-07-31T11:14:18;17.40;1.00
21259;DHT22;10787;53.364;-1.480;2023-07-31T11:17:06;17.40;99.90
21259;DHT22;10787;53.364;-1.480;2023-07-31T11:19:51;17.40;99.90
21259;DHT22;10787;53.364;-1.480;2023-07-31T11:22:35;17.50;99.90
21259;DHT22;10787;53.364;-1.480;2023-07-31T11:25:22;17.40;99.90
21259;DHT22;10787;53.364;-1.480;2023-07-31T11:28:09;17.40;99.90
21259;DHT22;10787;53.364;-1.480;2023-07-31T11:30:55;17.40;99.90
21259;DHT22;10787;53.364;-1.480;2023-07-31T11:33:40;17.30;99.90
21259;DHT22;10787;53.364;-1.480;2023-07-31T11:36:24;17.40;99.90
21259;DHT22;10787;53.364;-1.480;2023-07-31T11:39:10;17.50;99.90
21259;DHT22;10787;53.364;-1.480;2023-07-31T11:41:59;17.50;99.90
21259;DHT22;10787;53.364;-1.480;2023-07-31T11:44:44;17.60;73.90
21259;DHT22;10787;53.364;-1.480;2023-07-31T11:47:36;17.60;1.00
21259;DHT22;10787;53.364;-1.480;2023-07-31T11:50:21;17.60;1.00
21259;DHT22;10787;53.364;-1.480;2023-07-31T11:53:08;17.70;1.00
21259;DHT22;10787;53.364;-1.480;2023-07-31T11:55:53;17.60;1.00
21259;DHT22;10787;53.364;-1.480;2023-07-31T11:58:38;17.70;1.00
21259;DHT22;10787;53.364;-1.480;2023-07-31T12:01:23;17.70;1.00
21259;DHT22;10787;53.364;-1.480;2023-07-31T12:04:08;17.70;1.00
21259;DHT22;10787;53.364;-1.480;2023-07-31T12:06:53;17.70;1.00
21259;DHT22;10787;53.364;-1.480;2023-07-31T12:09:37;17.70;1.00
21259;DHT22;10787;53.364;-1.480;2023-07-31T12:12:25;17.60;23.70
21259;DHT22;10787;53.364;-1.480;2023-07-31T12:15:15;17.70;99.90
21259;DHT22;10787;53.364;-1.480;2023-07-31T12:18:04;17.70;99.90
21259;DHT22;10787;53.364;-1.480;2023-07-31T12:20:57;17.70;1.00
21259;DHT22;10787;53.364;-1.480;2023-07-31T12:23:44;17.80;1.00
21259;DHT22;10787;53.364;-1.480;2023-07-31T12:26:34;17.90;1.00
21259;DHT22;10787;53.364;-1.480;2023-07-31T12:29:18;18.10;1.00
21259;DHT22;10787;53.364;-1.480;2023-07-31T12:32:03;18.30;1.00
21259;DHT22;10787;53.364;-1.480;2023-07-31T12:34:47;18.20;1.00
21259;DHT22;10787;53.364;-1.480;2023-07-31T12:37:32;18.10;1.00
21259;DHT22;10787;53.364;-1.480;2023-07-31T12:40:17;17.90;1.00
21259;DHT22;10787;53.364;-1.480;2023-07-31T12:43:01;17.90;1.00
21259;DHT22;10787;53.364;-1.480;2023-07-31T12:45:47;17.80;1.00
21259;DHT22;10787;53.364;-1.480;2023-07-31T12:48:32;17.60;1.00
21259;DHT22;10787;53.364;-1.480;2023-07-31T12:51:16;17.50;1.00
21259;DHT22;10787;53.364;-1.480;2023-07-31T12:54:01;17.40;1.00
21259;DHT22;10787;53.364;-1.480;2023-07-31T12:56:45;17.40;1.00
21259;DHT22;10787;53.364;-1.480;2023-07-31T12:59:29;17.30;1.00
21259;DHT22;10787;53.364;-1.480;2023-07-31T13:02:13;17.20;1.00
21259;DHT22;10787;53.364;-1.480;2023-07-31T13:04:57;17.20;1.00
21259;DHT22;10787;53.364;-1.480;2023-07-31T13:07:41;17.20;1.00
21259;DHT22;10787;53.364;-1.480;2023-07-31T13:10:27;17.20;1.00
21259;DHT22;10787;53.364;-1.480;2023-07-31T13:13:12;17.10;1.00
21259;DHT22;10787;53.364;-1.480;2023-07-31T13:15:56;17.00;1.00
21259;DHT22;10787;53.364;-1.480;2023-07-31T13:18:41;17.00;1.00
21259;DHT22;10787;53.364;-1.480;2023-07-31T13:21:25;16.90;1.00
21259;DHT22;10787;53.364;-1.480;2023-07-31T13:24:09;16.90;1.00
21259;DHT22;10787;53.364;-1.480;2023-07-31T13:26:55;16.90;1.00
21259;DHT22;10787;53.364;-1.480;2023-07-31T13:29:39;16.90;1.00
21259;DHT22;10787;53.364;-1.480;2023-07-31T13:32:23;16.90;1.00
21259;DHT22;10787;53.364;-1.480;2023-07-31T13:35:08;16.90;1.00
21259;DHT22;10787;53.364;-1.480;2023-07-31T13:37:53;16.90;1.00
21259;DHT22;10787;53.364;-1.480;2023-07-31T13:40:37;16.90;1.00
21259;DHT22;10787;53.364;-1.480;2023-07-31T13:43:21;16.90;1.00
21259;DHT22;10787;53.364;-1.480;2023-07-31T13:46:08;16.80;1.00
21259;DHT22;10787;53.364;-1.480;2023-07-31T13:48:54;16.90;1.00
21259;DHT22;10787;53.364;-1.480;2023-07-31T13:51:39;16.90;7.30
21259;DHT22;10787;53.364;-1.480;2023-07-31T13:54:24;16.90;19.20
21259;DHT22;10787;53.364;-1.480;2023-07-31T13:57:08;16.90;1.00
21259;DHT22;10787;53.364;-1.480;2023-07-31T13:59:52;16.90;24.30
21259;DHT22;10787;53.364;-1.480;2023-07-31T14:02:36;17.00;87.90
21259;DHT22;10787;53.364;-1.480;2023-07-31T14:05:20;17.00;85.70
21259;DHT22;10787;53.364;-1.480;2023-07-31T14:08:04;17.00;99.90
21259;DHT22;10787;53.364;-1.480;2023-07-31T14:10:48;17.00;91.70
21259;DHT22;10787;53.364;-1.480;2023-07-31T14:13:33;17.10;99.90
21259;DHT22;10787;53.364;-1.480;2023-07-31T14:16:17;17.20;80.90
21259;DHT22;10787;53.364;-1.480;2023-07-31T14:19:01;17.20;1.00
21259;DHT22;10787;53.364;-1.480;2023-07-31T14:21:45;17.20;1.00
21259;DHT22;10787;53.364;-1.480;2023-07-31T14:24:30;17.30;1.00
21259;DHT22;10787;53.364;-1.480;2023-07-31T14:27:14;17.40;1.00
21259;DHT22;10787;53.364;-1.480;2023-07-31T14:30:01;17.50;1.00
21259;DHT22;10787;53.364;-1.480;2023-07-31T14:32:49;17.50;1.00
21259;DHT22;10787;53.364;-1.480;2023-07-31T14:35:38;17.50;1.00
21259;DHT22;10787;53.364;-1.480;2023-07-31T14:38:30;17.50;1.00
21259;DHT22;10787;53.364;-1.480;2023-07-31T14:41:14;17.60;1.00
21259;DHT22;10787;53.364;-1.480;2023-07-31T14:44:01;17.70;1.00
21259;DHT22;10787;53.364;-1.480;2023-07-31T14:46:46;17.60;1.00
21259;DHT22;10787;53.364;-1.480;2023-07-31T14:49:30;17.60;1.00
21259;DHT22;10787;53.364;-1.480;2023-07-31T14:52:15;17.50;1.00
21259;DHT22;10787;53.364;-1.480;2023-07-31T14:54:59;17.50;1.00
21259;DHT22;10787;53.364;-1.480;2023-07-31T14:57:43;17.50;1.00
21259;DHT22;10787;53.364;-1.480;2023-07-31T15:00:43;17.50;1.00
21259;DHT22;10787;53.364;-1.480;2023-07-31T15:03:27;17.50;1.00
21259;DHT22;10787;53.364;-1.480;2023-07-31T15:06:12;17.40;1.00
21259;DHT22;10787;53.364;-1.480;2023-07-31T15:08:57;17.40;1.00
21259;DHT22;10787;53.364;-1.480;2023-07-31T15:11:41;17.40;1.00
21259;DHT22;10787;53.364;-1.480;2023-07-31T15:14:25;17.40;1.00
21259;DHT22;10787;53.364;-1.480;2023-07-31T15:17:11;17.30;1.00
21259;DHT22;10787;53.364;-1.480;2023-07-31T15:19:55;17.30;1.00
21259;DHT22;10787;53.364;-1.480;2023-07-31T15:22:39;17.30;1.00
21259;DHT22;10787;53.364;-1.480;2023-07-31T15:25:24;17.30;1.00
21259;DHT22;10787;53.364;-1.480;2023-07-31T15:28:08;17.30;1.00
21259;DHT22;10787;53.364;-1.480;2023-07-31T15:30:53;17.30;1.00
21259;DHT22;10787;53.364;-1.480;2023-07-31T15:33:37;17.30;1.00
21259;DHT22;10787;53.364;-1.480;2023-07-31T15:36:21;17.40;1.00
21259;DHT22;10787;53.364;-1.480;2023-07-31T15:39:05;17.40;1.00
21259;DHT22;10787;53.364;-1.480;2023-07-31T15:41:52;17.40;1.00
21259;DHT22;10787;53.364;-1.480;2023-07-31T15:44:37;17.30;1.00
21259;DHT22;10787;53.364;-1.480;2023-07-31T15:47:22;17.30;1.00
21259;DHT22;10787;53.364;-1.480;2023-07-31T15:50:07;17.10;8.30
21259;DHT22;10787;53.364;-1.480;2023-07-31T15:52:51;16.60;99.90
21259;DHT22;10787;53.364;-1.480;2023-07-31T15:55:36;16.10;1.00
21259;DHT22;10787;53.364;-1.480;2023-07-31T15:58:20;15.80;1.00
21259;DHT22;10787;53.364;-1.480;2023-07-31T16:01:27;15.70;1.00
21259;DHT22;10787;53.364;-1.480;2023-07-31T16:04:12;15.70;99.90
21259;DHT22;10787;53.364;-1.480;2023-07-31T16:06:57;15.70;1.00
21259;DHT22;10787;53.364;-1.480;2023-07-31T16:09:44;16.00;1.00
21259;DHT22;10787;53.364;-1.480;2023-07-31T16:12:32;16.30;1.00
21259;DHT22;10787;53.364;-1.480;2023-07-31T16:15:19;17.00;1.00
21259;DHT22;10787;53.364;-1.480;2023-07-31T16:18:05;18.60;1.00
21259;DHT22;10787;53.364;-1.480;2023-07-31T16:20:59;20.10;99.90
21259;DHT22;10787;53.364;-1.480;2023-07-31T16:24:02;21.30;99.90
21259;DHT22;10787;53.364;-1.480;2023-07-31T16:26:46;21.80;99.90
21259;DHT22;10787;53.364;-1.480;2023-07-31T16:29:31;21.40;99.90
21259;DHT22;10787;53.364;-1.480;2023-07-31T16:32:15;21.00;99.90
21259;DHT22;10787;53.364;-1.480;2023-07-31T16:34:59;20.40;99.90
21259;DHT22;10787;53.364;-1.480;2023-07-31T16:37:44;19.60;99.90
21259;DHT22;10787;53.364;-1.480;2023-07-31T16:40:30;18.90;99.90
21259;DHT22;10787;53.364;-1.480;2023-07-31T16:43:15;18.70;99.90
21259;DHT22;10787;53.364;-1.480;2023-07-31T16:46:00;18.50;99.90
21259;DHT22;10787;53.364;-1.480;2023-07-31T16:48:43;18.40;99.90
21259;DHT22;10787;53.364;-1.480;2023-07-31T16:51:28;18.30;99.90
21259;DHT22;10787;53.364;-1.480;2023-07-31T16:54:12;18.10;99.90
21259;DHT22;10787;53.364;-1.480;2023-07-31T16:56:57;18.00;99.90
21259;DHT22;10787;53.364;-1.480;2023-07-31T16:59:41;18.50;99.90
21259;DHT22;10787;53.364;-1.480;2023-07-31T17:02:25;19.80;99.90
21259;DHT22;10787;53.364;-1.480;2023-07-31T17:05:09;21.30;99.90
21259;DHT22;10787;53.364;-1.480;2023-07-31T17:07:53;22.70;99.90
21259;DHT22;10787;53.364;-1.480;2023-07-31T17:10:37;23.90;99.90
21259;DHT22;10787;53.364;-1.480;2023-07-31T17:13:22;25.10;99.90
21259;DHT22;10787;53.364;-1.480;2023-07-31T17:16:06;25.30;99.90
21259;DHT22;10787;53.364;-1.480;2023-07-31T17:18:50;25.60;99.90
21259;DHT22;10787;53.364;-1.480;2023-07-31T17:21:34;25.20;99.90
21259;DHT22;10787;53.364;-1.480;2023-07-31T17:24:20;23.80;99.90